Time,TemperatureF,DewpointF,PressureIn,WindDirection,WindDirectionDegrees,WindSpeedMPH,WindSpeedGustMPH,Humidity,HourlyPrecipIn,Conditions,Clouds,dailyrainin,SoftwareType,DateUTC
2013-01-23 00:00:00,29.7,10.9,30.38,SE,137,0.0,23.0,45,0.00,,,0.00,Wunderground v.1.15,2013-01-23 06:00:00,
2013-01-23 00:06:00,29.7,9.9,30.38,SE,134,0.0,23.0,43,0.00,,,0.00,Wunderground v.1.15,2013-01-23 06:06:00,
2013-01-23 00:11:00,29.7,10.9,30.38,SE,140,1.0,23.0,45,0.00,,,0.00,Wunderground v.1.15,2013-01-23 06:11:00,
2013-01-23 00:16:00,29.8,10.0,30.38,SE,137,1.0,23.0,43,0.00,,,0.00,Wunderground v.1.15,2013-01-23 06:16:00,
2013-01-23 00:22:00,29.7,10.4,30.38,SE,138,1.0,23.0,44,0.00,,,0.00,Wunderground v.1.15,2013-01-23 06:22:00,
2013-01-23 00:27:00,29.7,9.9,30.37,SE,140,1.0,23.0,43,0.00,,,0.00,Wunderground v.1.15,2013-01-23 06:27:00,
2013-01-23 00:33:00,29.7,10.4,30.37,SE,140,1.0,23.0,44,0.00,,,0.00,Wunderground v.1.15,2013-01-23 06:33:00,
2013-01-23 00:38:00,29.7,9.9,30.37,SE,134,1.0,23.0,43,0.00,,,0.00,Wunderground v.1.15,2013-01-23 06:38:00,
2013-01-23 00:43:00,29.7,9.9,30.37,SE,136,1.0,23.0,43,0.00,,,0.00,Wunderground v.1.15,2013-01-23 06:43:00,
2013-01-23 00:49:00,29.7,9.9,30.37,SE,136,1.0,23.0,43,0.00,,,0.00,Wunderground v.1.15,2013-01-23 06:49:00,
2013-01-23 00:55:00,29.7,10.4,30.38,SE,136,1.0,23.0,44,0.00,,,0.00,Wunderground v.1.15,2013-01-23 06:55:00,
2013-01-23 01:00:00,29.7,10.4,30.37,SE,137,1.0,23.0,44,0.00,,,0.00,Wunderground v.1.15,2013-01-23 07:00:00,
2013-01-23 01:05:00,29.7,10.4,30.38,SE,136,1.0,23.0,44,0.00,,,0.00,Wunderground v.1.15,2013-01-23 07:05:00,
2013-01-23 01:11:00,29.6,10.3,30.38,SE,136,1.0,23.0,44,0.00,,,0.00,Wunderground v.1.15,2013-01-23 07:11:00,
2013-01-23 01:16:00,29.6,10.3,30.37,SE,137,0.0,23.0,44,0.00,,,0.00,Wunderground v.1.15,2013-01-23 07:16:00,
2013-01-23 01:21:00,29.6,10.3,30.37,SE,140,0.0,23.0,44,0.00,,,0.00,Wunderground v.1.15,2013-01-23 07:21:00,
2013-01-23 01:27:00,29.6,10.8,30.37,SE,140,0.0,23.0,45,0.00,,,0.00,Wunderground v.1.15,2013-01-23 07:27:00,
2013-01-23 01:33:00,29.6,10.8,30.37,SE,140,0.0,23.0,45,0.00,,,0.00,Wunderground v.1.15,2013-01-23 07:33:00,
2013-01-23 01:38:00,29.6,10.8,30.38,SE,140,0.0,23.0,45,0.00,,,0.00,Wunderground v.1.15,2013-01-23 07:38:00,
2013-01-23 01:44:00,29.5,10.7,30.38,SE,140,0.0,23.0,45,0.00,,,0.00,Wunderground v.1.15,2013-01-23 07:44:00,
2013-01-23 01:49:00,29.6,11.3,30.38,SE,140,0.0,23.0,46,0.00,,,0.00,Wunderground v.1.15,2013-01-23 07:49:00,
2013-01-23 01:55:00,29.5,11.2,30.38,SE,140,0.0,23.0,46,0.00,,,0.00,Wunderground v.1.15,2013-01-23 07:55:00,
2013-01-23 02:01:00,29.5,11.7,30.38,SE,140,1.0,23.0,47,0.00,,,0.00,Wunderground v.1.15,2013-01-23 08:01:00,
2013-01-23 02:06:00,29.5,11.2,30.38,SE,140,1.0,23.0,46,0.00,,,0.00,Wunderground v.1.15,2013-01-23 08:06:00,
2013-01-23 02:12:00,29.4,11.6,30.38,SE,140,1.0,23.0,47,0.00,,,0.00,Wunderground v.1.15,2013-01-23 08:12:00,
2013-01-23 02:18:00,29.4,11.6,30.38,SE,140,1.0,23.0,47,0.00,,,0.00,Wunderground v.1.15,2013-01-23 08:18:00,
2013-01-23 02:24:00,29.4,11.6,30.38,SE,135,1.0,23.0,47,0.00,,,0.00,Wunderground v.1.15,2013-01-23 08:24:00,
2013-01-23 02:29:00,29.4,11.6,30.38,SE,136,1.0,23.0,47,0.00,,,0.00,Wunderground v.1.15,2013-01-23 08:29:00,
2013-01-23 02:34:00,29.3,11.5,30.38,SE,127,1.0,23.0,47,0.00,,,0.00,Wunderground v.1.15,2013-01-23 08:34:00,
2013-01-23 02:40:00,29.3,11.5,30.38,SE,135,1.0,23.0,47,0.00,,,0.00,Wunderground v.1.15,2013-01-23 08:40:00,
2013-01-23 02:45:00,29.3,12.0,30.38,SE,135,1.0,23.0,48,0.00,,,0.00,Wunderground v.1.15,2013-01-23 08:45:00,
2013-01-23 02:51:00,29.3,11.5,30.38,SE,138,1.0,23.0,47,0.00,,,0.00,Wunderground v.1.15,2013-01-23 08:51:00,
2013-01-23 02:56:00,29.3,11.5,30.38,SE,136,1.0,23.0,47,0.00,,,0.00,Wunderground v.1.15,2013-01-23 08:56:00,
2013-01-23 03:02:00,29.3,11.5,30.38,SE,136,0.0,23.0,47,0.00,,,0.00,Wunderground v.1.15,2013-01-23 09:02:00,
2013-01-23 03:08:00,29.3,12.0,30.37,SE,135,1.0,23.0,48,0.00,,,0.00,Wunderground v.1.15,2013-01-23 09:08:00,
2013-01-23 03:13:00,29.3,11.5,30.37,SE,136,1.0,23.0,47,0.00,,,0.00,Wunderground v.1.15,2013-01-23 09:13:00,
2013-01-23 03:19:00,29.2,11.9,30.37,SE,137,0.0,23.0,48,0.00,,,0.00,Wunderground v.1.15,2013-01-23 09:19:00,
2013-01-23 03:24:00,29.3,12.0,30.37,SE,136,0.0,23.0,48,0.00,,,0.00,Wunderground v.1.15,2013-01-23 09:24:00,
2013-01-23 03:29:00,29.2,11.4,30.37,SE,137,0.0,23.0,47,0.00,,,0.00,Wunderground v.1.15,2013-01-23 09:29:00,
2013-01-23 03:35:00,29.2,11.4,30.37,SE,137,0.0,23.0,47,0.00,,,0.00,Wunderground v.1.15,2013-01-23 09:35:00,
2013-01-23 03:41:00,29.2,11.4,30.37,SE,135,1.0,23.0,47,0.00,,,0.00,Wunderground v.1.15,2013-01-23 09:41:00,
2013-01-23 03:47:00,29.2,11.4,30.37,SE,136,1.0,23.0,47,0.00,,,0.00,Wunderground v.1.15,2013-01-23 09:47:00,
2013-01-23 03:52:00,29.2,11.9,30.37,SE,137,1.0,23.0,48,0.00,,,0.00,Wunderground v.1.15,2013-01-23 09:52:00,
2013-01-23 03:58:00,29.2,11.9,30.38,SE,137,0.0,23.0,48,0.00,,,0.00,Wunderground v.1.15,2013-01-23 09:58:00,
2013-01-23 04:04:00,29.2,11.0,30.38,SE,136,0.0,23.0,46,0.00,,,0.00,Wunderground v.1.15,2013-01-23 10:04:00,
2013-01-23 04:09:00,29.2,12.4,30.38,SE,138,0.0,23.0,49,0.00,,,0.00,Wunderground v.1.15,2013-01-23 10:09:00,
2013-01-23 04:15:00,29.3,12.0,30.38,SE,138,0.0,23.0,48,0.00,,,0.00,Wunderground v.1.15,2013-01-23 10:15:00,
2013-01-23 04:20:00,29.2,11.9,30.38,SE,140,0.0,23.0,48,0.00,,,0.00,Wunderground v.1.15,2013-01-23 10:20:00,
2013-01-23 04:26:00,29.2,11.9,30.38,SE,140,0.0,23.0,48,0.00,,,0.00,Wunderground v.1.15,2013-01-23 10:26:00,
2013-01-23 04:32:00,29.2,12.4,30.38,SE,140,0.0,23.0,49,0.00,,,0.00,Wunderground v.1.15,2013-01-23 10:32:00,
2013-01-23 04:38:00,29.2,13.3,30.38,SE,140,0.0,23.0,51,0.00,,,0.00,Wunderground v.1.15,2013-01-23 10:38:00,
2013-01-23 04:43:00,29.2,13.3,30.38,SE,140,0.0,23.0,51,0.00,,,0.00,Wunderground v.1.15,2013-01-23 10:43:00,
2013-01-23 04:49:00,29.2,13.3,30.38,SE,140,0.0,23.0,51,0.00,,,0.00,Wunderground v.1.15,2013-01-23 10:49:00,
2013-01-23 04:54:00,29.2,13.7,30.38,SE,142,0.0,23.0,52,0.00,,,0.00,Wunderground v.1.15,2013-01-23 10:54:00,
2013-01-23 05:00:00,29.2,14.2,30.38,SE,141,0.0,23.0,53,0.00,,,0.00,Wunderground v.1.15,2013-01-23 11:00:00,
2013-01-23 05:05:00,29.2,13.7,30.38,SE,140,0.0,23.0,52,0.00,,,0.00,Wunderground v.1.15,2013-01-23 11:05:00,
2013-01-23 05:11:00,29.2,13.7,30.38,SE,140,0.0,23.0,52,0.00,,,0.00,Wunderground v.1.15,2013-01-23 11:11:00,
2013-01-23 05:16:00,29.2,13.7,30.38,SE,140,1.0,23.0,52,0.00,,,0.00,Wunderground v.1.15,2013-01-23 11:16:00,
2013-01-23 05:22:00,29.2,14.2,30.39,SE,140,1.0,23.0,53,0.00,,,0.00,Wunderground v.1.15,2013-01-23 11:22:00,
2013-01-23 05:27:00,29.2,13.7,30.39,SE,134,0.0,23.0,52,0.00,,,0.00,Wunderground v.1.15,2013-01-23 11:27:00,
2013-01-23 05:32:00,29.3,13.8,30.39,SE,135,1.0,23.0,52,0.00,,,0.00,Wunderground v.1.15,2013-01-23 11:32:00,
2013-01-23 05:38:00,29.3,13.4,30.39,SE,136,1.0,23.0,51,0.00,,,0.00,Wunderground v.1.15,2013-01-23 11:38:00,
2013-01-23 05:43:00,29.3,13.4,30.39,SE,135,1.0,23.0,51,0.00,,,0.00,Wunderground v.1.15,2013-01-23 11:43:00,
2013-01-23 05:48:00,29.3,12.9,30.39,SE,136,1.0,23.0,50,0.00,,,0.00,Wunderground v.1.15,2013-01-23 11:48:00,
2013-01-23 05:53:00,29.2,12.8,30.39,SE,138,0.0,23.0,50,0.00,,,0.00,Wunderground v.1.15,2013-01-23 11:53:00,
2013-01-23 05:59:00,29.3,12.9,30.39,SE,140,0.0,23.0,50,0.00,,,0.00,Wunderground v.1.15,2013-01-23 11:59:00,
2013-01-23 06:05:00,29.3,12.9,30.39,SE,138,1.0,23.0,50,0.00,,,0.00,Wunderground v.1.15,2013-01-23 12:05:00,
2013-01-23 06:11:00,29.2,13.7,30.39,SE,136,1.0,23.0,52,0.00,,,0.00,Wunderground v.1.15,2013-01-23 12:11:00,
2013-01-23 06:16:00,29.2,14.6,30.39,SE,141,0.0,23.0,54,0.00,,,0.00,Wunderground v.1.15,2013-01-23 12:16:00,
2013-01-23 06:22:00,29.1,14.5,30.39,SE,140,0.0,23.0,54,0.00,,,0.00,Wunderground v.1.15,2013-01-23 12:22:00,
2013-01-23 06:27:00,29.0,14.4,30.39,SE,140,1.0,23.0,54,0.00,,,0.00,Wunderground v.1.15,2013-01-23 12:27:00,
2013-01-23 06:33:00,29.0,14.4,30.39,SE,140,1.0,23.0,54,0.00,,,0.00,Wunderground v.1.15,2013-01-23 12:33:00,
2013-01-23 06:38:00,29.0,15.2,30.39,SE,138,1.0,23.0,56,0.00,,,0.00,Wunderground v.1.15,2013-01-23 12:38:00,
2013-01-23 06:43:00,29.0,14.8,30.39,SE,138,1.0,23.0,55,0.00,,,0.00,Wunderground v.1.15,2013-01-23 12:43:00,
2013-01-23 06:49:00,29.0,14.4,30.40,SE,136,1.0,23.0,54,0.00,,,0.00,Wunderground v.1.15,2013-01-23 12:49:00,
2013-01-23 06:55:00,29.0,14.0,30.40,SE,137,1.0,23.0,53,0.00,,,0.00,Wunderground v.1.15,2013-01-23 12:55:00,
2013-01-23 07:00:00,29.1,14.1,30.40,SE,136,0.0,23.0,53,0.00,,,0.00,Wunderground v.1.15,2013-01-23 13:00:00,
2013-01-23 07:06:00,29.1,14.1,30.40,SE,137,0.0,23.0,53,0.00,,,0.00,Wunderground v.1.15,2013-01-23 13:06:00,
2013-01-23 07:11:00,29.2,14.6,30.40,SE,137,0.0,23.0,54,0.00,,,0.00,Wunderground v.1.15,2013-01-23 13:11:00,
2013-01-23 07:16:00,29.2,13.7,30.40,SE,137,0.0,23.0,52,0.00,,,0.00,Wunderground v.1.15,2013-01-23 13:16:00,
2013-01-23 07:22:00,29.2,13.7,30.40,SE,136,0.0,23.0,52,0.00,,,0.00,Wunderground v.1.15,2013-01-23 13:22:00,
2013-01-23 07:27:00,29.3,12.9,30.40,SE,138,0.0,23.0,50,0.00,,,0.00,Wunderground v.1.15,2013-01-23 13:27:00,
2013-01-23 07:33:00,29.4,13.5,30.39,SE,144,0.0,23.0,51,0.00,,,0.00,Wunderground v.1.15,2013-01-23 13:33:00,
2013-01-23 07:38:00,29.4,14.8,30.39,SE,145,0.0,23.0,54,0.00,,,0.00,Wunderground v.1.15,2013-01-23 13:38:00,
2013-01-23 07:43:00,29.5,14.9,30.39,SE,145,0.0,23.0,54,0.00,,,0.00,Wunderground v.1.15,2013-01-23 13:43:00,
2013-01-23 07:49:00,29.6,14.5,30.39,SE,145,0.0,23.0,53,0.00,,,0.00,Wunderground v.1.15,2013-01-23 13:49:00,
2013-01-23 07:54:00,29.7,14.2,30.39,SE,145,0.0,23.0,52,0.00,,,0.00,Wunderground v.1.15,2013-01-23 13:54:00,
2013-01-23 07:59:00,29.9,14.8,30.39,SE,145,0.0,23.0,53,0.00,,,0.00,Wunderground v.1.15,2013-01-23 13:59:00,
2013-01-23 08:05:00,30.1,15.0,30.39,SE,145,0.0,23.0,53,0.00,,,0.00,Wunderground v.1.15,2013-01-23 14:05:00,
2013-01-23 08:10:00,30.3,15.2,30.39,SE,145,0.0,23.0,53,0.00,,,0.00,Wunderground v.1.15,2013-01-23 14:10:00,
2013-01-23 08:15:00,30.4,15.7,30.40,SE,145,0.0,23.0,54,0.00,,,0.00,Wunderground v.1.15,2013-01-23 14:15:00,
2013-01-23 08:21:00,30.6,15.0,30.40,SE,145,0.0,23.0,52,0.00,,,0.00,Wunderground v.1.15,2013-01-23 14:21:00,
2013-01-23 08:26:00,31.0,15.4,30.40,SE,145,0.0,23.0,52,0.00,,,0.00,Wunderground v.1.15,2013-01-23 14:26:00,
2013-01-23 08:31:00,31.0,15.0,30.40,SE,144,0.0,23.0,51,0.00,,,0.00,Wunderground v.1.15,2013-01-23 14:31:00,
2013-01-23 08:37:00,31.0,15.0,30.40,SE,143,1.0,23.0,51,0.00,,,0.00,Wunderground v.1.15,2013-01-23 14:37:00,
2013-01-23 08:42:00,31.3,15.2,30.40,SE,142,1.0,23.0,51,0.00,,,0.00,Wunderground v.1.15,2013-01-23 14:42:00,
2013-01-23 08:47:00,31.6,15.1,30.40,SE,144,0.0,23.0,50,0.00,,,0.00,Wunderground v.1.15,2013-01-23 14:47:00,
2013-01-23 08:53:00,32.0,15.0,30.40,SE,145,0.0,23.0,49,0.00,,,0.00,Wunderground v.1.15,2013-01-23 14:53:00,
2013-01-23 08:58:00,32.5,15.4,30.40,SE,143,0.0,23.0,49,0.00,,,0.00,Wunderground v.1.15,2013-01-23 14:58:00,
2013-01-23 09:03:00,33.1,14.5,30.41,SE,144,0.0,23.0,46,0.00,,,0.00,Wunderground v.1.15,2013-01-23 15:03:00,
2013-01-23 09:09:00,33.0,14.9,30.41,SE,144,1.0,23.0,47,0.00,,,0.00,Wunderground v.1.15,2013-01-23 15:09:00,
2013-01-23 09:14:00,33.4,15.3,30.41,SE,138,1.0,23.0,47,0.00,,,0.00,Wunderground v.1.15,2013-01-23 15:14:00,
2013-01-23 09:19:00,33.5,14.9,30.41,SE,143,1.0,23.0,46,0.00,,,0.00,Wunderground v.1.15,2013-01-23 15:19:00,
2013-01-23 09:25:00,34.1,15.9,30.41,SE,138,0.0,23.0,47,0.00,,,0.00,Wunderground v.1.15,2013-01-23 15:25:00,
2013-01-23 09:30:00,34.8,15.6,30.41,South,180,0.0,23.0,45,0.00,,,0.00,Wunderground v.1.15,2013-01-23 15:30:00,
2013-01-23 09:35:00,35.1,15.3,30.40,South,170,1.0,23.0,44,0.00,,,0.00,Wunderground v.1.15,2013-01-23 15:35:00,
2013-01-23 09:41:00,35.1,15.9,30.39,SSE,162,2.0,23.0,45,0.00,,,0.00,Wunderground v.1.15,2013-01-23 15:41:00,
2013-01-23 09:46:00,35.5,16.2,30.40,South,180,2.0,23.0,45,0.00,,,0.00,Wunderground v.1.15,2013-01-23 15:46:00,
2013-01-23 09:51:00,35.9,16.1,30.40,SE,129,2.0,23.0,44,0.00,,,0.00,Wunderground v.1.15,2013-01-23 15:51:00,
2013-01-23 09:57:00,36.2,16.4,30.40,SSE,162,3.0,23.0,44,0.00,,,0.00,Wunderground v.1.15,2013-01-23 15:57:00,
2013-01-23 10:02:00,37.1,17.2,30.40,SSE,158,2.0,23.0,44,0.00,,,0.00,Wunderground v.1.15,2013-01-23 16:02:00,
2013-01-23 10:07:00,37.5,17.0,30.40,SSE,150,1.0,23.0,43,0.00,,,0.00,Wunderground v.1.15,2013-01-23 16:07:00,
2013-01-23 10:13:00,38.2,17.6,30.39,SSE,160,2.0,23.0,43,0.00,,,0.00,Wunderground v.1.15,2013-01-23 16:13:00,
2013-01-23 10:18:00,38.4,17.8,30.39,SSW,195,2.0,23.0,43,0.00,,,0.00,Wunderground v.1.15,2013-01-23 16:18:00,
2013-01-23 10:23:00,38.5,17.4,30.39,South,185,2.0,23.0,42,0.00,,,0.00,Wunderground v.1.15,2013-01-23 16:23:00,
2013-01-23 10:29:00,39.0,17.8,30.38,South,170,2.0,23.0,42,0.00,,,0.00,Wunderground v.1.15,2013-01-23 16:29:00,
2013-01-23 10:34:00,38.8,17.6,30.38,SSE,150,3.0,23.0,42,0.00,,,0.00,Wunderground v.1.15,2013-01-23 16:34:00,
2013-01-23 10:40:00,39.6,18.9,30.38,South,190,3.0,23.0,43,0.00,,,0.00,Wunderground v.1.15,2013-01-23 16:40:00,
2013-01-23 10:45:00,39.9,18.6,30.37,SSE,150,3.0,23.0,42,0.00,,,0.00,Wunderground v.1.15,2013-01-23 16:45:00,
2013-01-23 10:51:00,40.4,19.1,30.37,SSW,203,3.0,23.0,42,0.00,,,0.00,Wunderground v.1.15,2013-01-23 16:51:00,
2013-01-23 10:56:00,40.6,19.3,30.36,SW,219,4.0,23.0,42,0.00,,,0.00,Wunderground v.1.15,2013-01-23 16:56:00,
2013-01-23 11:02:00,40.9,19.5,30.36,SW,233,5.0,23.0,42,0.00,,,0.00,Wunderground v.1.15,2013-01-23 17:02:00,
2013-01-23 11:07:00,40.7,19.4,30.36,SSW,203,5.0,23.0,42,0.00,,,0.00,Wunderground v.1.15,2013-01-23 17:07:00,
2013-01-23 11:12:00,41.5,19.5,30.35,SSE,162,5.0,23.0,41,0.00,,,0.00,Wunderground v.1.15,2013-01-23 17:12:00,
2013-01-23 11:18:00,42.2,19.6,30.34,South,181,4.0,23.0,40,0.00,,,0.00,Wunderground v.1.15,2013-01-23 17:18:00,
2013-01-23 11:23:00,42.3,20.8,30.34,SSW,204,4.0,23.0,42,0.00,,,0.00,Wunderground v.1.15,2013-01-23 17:23:00,
2013-01-23 11:29:00,42.0,20.0,30.34,SSE,160,5.0,23.0,41,0.00,,,0.00,Wunderground v.1.15,2013-01-23 17:29:00,
2013-01-23 11:34:00,42.5,20.4,30.33,South,189,5.0,23.0,41,0.00,,,0.00,Wunderground v.1.15,2013-01-23 17:34:00,
2013-01-23 11:40:00,42.5,20.4,30.33,WSW,238,6.0,23.0,41,0.00,,,0.00,Wunderground v.1.15,2013-01-23 17:40:00,
2013-01-23 11:45:00,42.5,19.8,30.32,SSW,200,6.0,23.0,40,0.00,,,0.00,Wunderground v.1.15,2013-01-23 17:45:00,
2013-01-23 11:50:00,42.7,20.6,30.32,SW,229,6.0,23.0,41,0.00,,,0.00,Wunderground v.1.15,2013-01-23 17:50:00,
2013-01-23 11:55:00,42.9,20.8,30.31,SSW,207,7.0,23.0,41,0.00,,,0.00,Wunderground v.1.15,2013-01-23 17:55:00,
2013-01-23 12:01:00,43.5,21.3,30.30,SSE,163,6.0,23.0,41,0.00,,,0.00,Wunderground v.1.15,2013-01-23 18:01:00,
2013-01-23 12:06:00,43.7,20.9,30.31,SSE,157,6.0,23.0,40,0.00,,,0.00,Wunderground v.1.15,2013-01-23 18:06:00,
2013-01-23 12:12:00,44.9,22.0,30.30,SSW,200,5.0,23.0,40,0.00,,,0.00,Wunderground v.1.15,2013-01-23 18:12:00,
2013-01-23 12:17:00,44.8,21.9,30.30,SSE,167,5.0,23.0,40,0.00,,,0.00,Wunderground v.1.15,2013-01-23 18:17:00,
2013-01-23 12:22:00,45.2,21.7,30.30,South,190,6.0,23.0,39,0.00,,,0.00,Wunderground v.1.15,2013-01-23 18:22:00,
2013-01-23 12:27:00,45.6,22.6,30.29,SW,226,5.0,23.0,40,0.00,,,0.00,Wunderground v.1.15,2013-01-23 18:27:00,
2013-01-23 12:33:00,46.0,22.4,30.28,SSW,201,6.0,23.0,39,0.00,,,0.00,Wunderground v.1.15,2013-01-23 18:33:00,
2013-01-23 12:38:00,46.0,23.0,30.28,SSW,197,6.0,23.0,40,0.00,,,0.00,Wunderground v.1.15,2013-01-23 18:38:00,
2013-01-23 12:44:00,46.0,23.0,30.28,SSW,200,7.0,23.0,40,0.00,,,0.00,Wunderground v.1.15,2013-01-23 18:44:00,
2013-01-23 12:49:00,46.5,23.4,30.28,SSE,168,6.0,23.0,40,0.00,,,0.00,Wunderground v.1.15,2013-01-23 18:49:00,
2013-01-23 12:54:00,46.7,23.6,30.27,South,179,6.0,23.0,40,0.00,,,0.00,Wunderground v.1.15,2013-01-23 18:54:00,
2013-01-23 13:00:00,47.1,24.0,30.27,SSE,168,5.0,5.0,40,0.00,,,0.00,Wunderground v.1.15,2013-01-23 19:00:00,
2013-01-23 13:05:00,47.2,23.5,30.26,South,172,6.0,23.0,39,0.00,,,0.00,Wunderground v.1.15,2013-01-23 19:05:00,
2013-01-23 13:10:00,47.4,24.3,30.26,South,190,6.0,6.0,40,0.00,,,0.00,Wunderground v.1.15,2013-01-23 19:10:00,
2013-01-23 13:15:00,47.3,23.6,30.26,SSW,207,6.0,23.0,39,0.00,,,0.00,Wunderground v.1.15,2013-01-23 19:15:00,
2013-01-23 13:21:00,47.3,24.8,30.25,SSW,213,6.0,7.0,41,0.00,,,0.00,Wunderground v.1.15,2013-01-23 19:21:00,
2013-01-23 13:26:00,47.7,24.5,30.25,South,184,5.0,23.0,40,0.00,,,0.00,Wunderground v.1.15,2013-01-23 19:26:00,
2013-01-23 13:32:00,48.1,24.9,30.25,South,191,5.0,23.0,40,0.00,,,0.00,Wunderground v.1.15,2013-01-23 19:32:00,
2013-01-23 13:37:00,48.9,25.6,30.25,SW,222,4.0,23.0,40,0.00,,,0.00,Wunderground v.1.15,2013-01-23 19:37:00,
2013-01-23 13:42:00,48.9,25.0,30.25,SSW,212,4.0,23.0,39,0.00,,,0.00,Wunderground v.1.15,2013-01-23 19:42:00,
2013-01-23 13:48:00,48.9,25.6,30.24,WSW,243,6.0,23.0,40,0.00,,,0.00,Wunderground v.1.15,2013-01-23 19:48:00,
2013-01-23 13:53:00,48.7,25.4,30.24,SE,134,6.0,23.0,40,0.00,,,0.00,Wunderground v.1.15,2013-01-23 19:53:00,
2013-01-23 13:58:00,48.9,26.2,30.24,SSW,208,6.0,23.0,41,0.00,,,0.00,Wunderground v.1.15,2013-01-23 19:58:00,
2013-01-23 14:04:00,49.3,26.0,30.24,SSW,196,6.0,23.0,40,0.00,,,0.00,Wunderground v.1.15,2013-01-23 20:04:00,
2013-01-23 14:09:00,49.5,26.1,30.23,South,181,6.0,23.0,40,0.00,,,0.00,Wunderground v.1.15,2013-01-23 20:09:00,
2013-01-23 14:14:00,49.3,26.0,30.23,SW,219,7.0,23.0,40,0.00,,,0.00,Wunderground v.1.15,2013-01-23 20:14:00,
2013-01-23 14:19:00,50.1,26.7,30.23,SW,218,6.0,23.0,40,0.00,,,0.00,Wunderground v.1.15,2013-01-23 20:19:00,
2013-01-23 14:25:00,50.1,26.7,30.23,South,173,5.0,23.0,40,0.00,,,0.00,Wunderground v.1.15,2013-01-23 20:25:00,
2013-01-23 14:30:00,50.0,26.6,30.23,WSW,238,5.0,23.0,40,0.00,,,0.00,Wunderground v.1.15,2013-01-23 20:30:00,
2013-01-23 14:35:00,49.7,26.3,30.22,West,275,7.0,23.0,40,0.00,,,0.00,Wunderground v.1.15,2013-01-23 20:35:00,
2013-01-23 14:41:00,49.5,26.1,30.22,NW,306,8.0,9.0,40,0.00,,,0.00,Wunderground v.1.15,2013-01-23 20:41:00,
2013-01-23 14:46:00,49.5,26.7,30.22,SSW,198,8.0,23.0,41,0.00,,,0.00,Wunderground v.1.15,2013-01-23 20:46:00,
2013-01-23 14:52:00,49.5,26.7,30.22,SSE,162,7.0,23.0,41,0.00,,,0.00,Wunderground v.1.15,2013-01-23 20:52:00,
2013-01-23 14:57:00,49.5,26.7,30.22,South,184,6.0,23.0,41,0.00,,,0.00,Wunderground v.1.15,2013-01-23 20:57:00,
2013-01-23 15:02:00,49.7,27.5,30.22,WNW,290,5.0,23.0,42,0.00,,,0.00,Wunderground v.1.15,2013-01-23 21:02:00,
2013-01-23 15:08:00,49.6,27.4,30.22,NW,313,6.0,23.0,42,0.00,,,0.00,Wunderground v.1.15,2013-01-23 21:08:00,
2013-01-23 15:13:00,49.8,27.6,30.22,WSW,256,6.0,23.0,42,0.00,,,0.00,Wunderground v.1.15,2013-01-23 21:13:00,
2013-01-23 15:19:00,49.6,27.4,30.21,WSW,240,5.0,23.0,42,0.00,,,0.00,Wunderground v.1.15,2013-01-23 21:19:00,
2013-01-23 15:24:00,49.6,27.4,30.21,SW,224,6.0,23.0,42,0.00,,,0.00,Wunderground v.1.15,2013-01-23 21:24:00,
2013-01-23 15:30:00,49.5,27.9,30.22,WSW,253,6.0,23.0,43,0.00,,,0.00,Wunderground v.1.15,2013-01-23 21:30:00,
2013-01-23 15:35:00,49.1,27.5,30.22,South,185,6.0,23.0,43,0.00,,,0.00,Wunderground v.1.15,2013-01-23 21:35:00,
2013-01-23 15:40:00,49.2,28.2,30.22,WSW,245,6.0,23.0,44,0.00,,,0.00,Wunderground v.1.15,2013-01-23 21:40:00,
2013-01-23 15:46:00,49.0,28.0,30.21,SSW,207,6.0,23.0,44,0.00,,,0.00,Wunderground v.1.15,2013-01-23 21:46:00,
2013-01-23 15:51:00,49.1,28.7,30.21,SW,234,7.0,9.0,45,0.00,,,0.00,Wunderground v.1.15,2013-01-23 21:51:00,
2013-01-23 15:57:00,49.0,28.6,30.20,South,189,6.0,23.0,45,0.00,,,0.00,Wunderground v.1.15,2013-01-23 21:57:00,
2013-01-23 16:02:00,48.9,28.5,30.20,SW,233,7.0,23.0,45,0.00,,,0.00,Wunderground v.1.15,2013-01-23 22:02:00,
2013-01-23 16:07:00,48.9,28.5,30.20,SSW,201,6.0,23.0,45,0.00,,,0.00,Wunderground v.1.15,2013-01-23 22:07:00,
2013-01-23 16:13:00,48.8,28.9,30.21,South,179,6.0,23.0,46,0.00,,,0.00,Wunderground v.1.15,2013-01-23 22:13:00,
2013-01-23 16:18:00,48.7,28.8,30.21,SSE,160,5.0,23.0,46,0.00,,,0.00,Wunderground v.1.15,2013-01-23 22:18:00,
2013-01-23 16:23:00,48.5,28.6,30.21,South,181,5.0,23.0,46,0.00,,,0.00,Wunderground v.1.15,2013-01-23 22:23:00,
2013-01-23 16:29:00,48.2,28.9,30.21,South,170,4.0,23.0,47,0.00,,,0.00,Wunderground v.1.15,2013-01-23 22:29:00,
2013-01-23 16:34:00,48.0,28.7,30.21,South,187,3.0,23.0,47,0.00,,,0.00,Wunderground v.1.15,2013-01-23 22:34:00,
2013-01-23 16:40:00,47.8,29.0,30.21,South,171,3.0,23.0,48,0.00,,,0.00,Wunderground v.1.15,2013-01-23 22:40:00,
2013-01-23 16:45:00,47.6,28.9,30.21,SSE,167,4.0,23.0,48,0.00,,,0.00,Wunderground v.1.15,2013-01-23 22:45:00,
2013-01-23 16:50:00,47.4,29.2,30.21,South,181,4.0,4.0,49,0.00,,,0.00,Wunderground v.1.15,2013-01-23 22:50:00,
2013-01-23 16:56:00,47.2,29.0,30.20,SW,232,3.0,23.0,49,0.00,,,0.00,Wunderground v.1.15,2013-01-23 22:56:00,
2013-01-23 17:01:00,47.1,29.4,30.20,South,170,4.0,23.0,50,0.00,,,0.00,Wunderground v.1.15,2013-01-23 23:01:00,
2013-01-23 17:06:00,46.8,29.1,30.20,South,169,4.0,23.0,50,0.00,,,0.00,Wunderground v.1.15,2013-01-23 23:06:00,
2013-01-23 17:12:00,46.6,29.4,30.21,South,190,3.0,23.0,51,0.00,,,0.00,Wunderground v.1.15,2013-01-23 23:12:00,
2013-01-23 17:17:00,46.5,29.3,30.20,SSE,166,2.0,23.0,51,0.00,,,0.00,Wunderground v.1.15,2013-01-23 23:17:00,
2013-01-23 17:23:00,46.3,29.6,30.20,South,169,2.0,23.0,52,0.00,,,0.00,Wunderground v.1.15,2013-01-23 23:23:00,
2013-01-23 17:29:00,46.2,29.5,30.20,SSW,197,3.0,23.0,52,0.00,,,0.00,Wunderground v.1.15,2013-01-23 23:29:00,
2013-01-23 17:34:00,46.1,29.4,30.20,SSE,164,3.0,23.0,52,0.00,,,0.00,Wunderground v.1.15,2013-01-23 23:34:00,
2013-01-23 17:39:00,46.0,29.3,30.20,SSE,167,3.0,23.0,52,0.00,,,0.00,Wunderground v.1.15,2013-01-23 23:39:00,
2013-01-23 17:45:00,45.7,29.5,30.20,South,188,2.0,23.0,53,0.00,,,0.00,Wunderground v.1.15,2013-01-23 23:45:00,
2013-01-23 17:50:00,45.6,29.4,30.20,SSE,164,2.0,2.0,53,0.00,,,0.00,Wunderground v.1.15,2013-01-23 23:50:00,
2013-01-23 17:55:00,45.4,29.3,30.20,SSE,163,2.0,23.0,53,0.00,,,0.00,Wunderground v.1.15,2013-01-23 23:55:00,
2013-01-23 18:01:00,45.2,29.5,30.20,SSE,150,1.0,23.0,54,0.00,,,0.00,Wunderground v.1.15,2013-01-24 00:01:00,
2013-01-23 18:06:00,44.9,29.7,30.20,SSE,156,1.0,23.0,55,0.00,,,0.00,Wunderground v.1.15,2013-01-24 00:06:00,
2013-01-23 18:12:00,44.5,29.3,30.19,SSE,150,0.0,23.0,55,0.00,,,0.00,Wunderground v.1.15,2013-01-24 00:12:00,
2013-01-23 18:18:00,44.1,29.4,30.19,SSE,149,0.0,23.0,56,0.00,,,0.00,Wunderground v.1.15,2013-01-24 00:18:00,
2013-01-23 18:23:00,43.8,29.5,30.19,SSE,149,0.0,23.0,57,0.00,,,0.00,Wunderground v.1.15,2013-01-24 00:23:00,
2013-01-23 18:29:00,43.4,29.2,30.19,SSE,149,0.0,23.0,57,0.00,,,0.00,Wunderground v.1.15,2013-01-24 00:29:00,
2013-01-23 18:34:00,43.4,29.6,30.19,SSE,164,0.0,23.0,58,0.00,,,0.00,Wunderground v.1.15,2013-01-24 00:34:00,
2013-01-23 18:39:00,43.4,29.6,30.19,SSE,162,0.0,23.0,58,0.00,,,0.00,Wunderground v.1.15,2013-01-24 00:39:00,
2013-01-23 18:45:00,43.6,29.8,30.19,SSE,162,0.0,23.0,58,0.00,,,0.00,Wunderground v.1.15,2013-01-24 00:45:00,
2013-01-23 18:50:00,43.4,29.6,30.19,SSE,159,0.0,23.0,58,0.00,,,0.00,Wunderground v.1.15,2013-01-24 00:50:00,
2013-01-23 18:55:00,43.4,29.6,30.18,SSE,160,0.0,23.0,58,0.00,,,0.00,Wunderground v.1.15,2013-01-24 00:55:00,
2013-01-23 19:01:00,43.0,29.2,30.18,SSE,151,0.0,23.0,58,0.00,,,0.00,Wunderground v.1.15,2013-01-24 01:01:00,
2013-01-23 19:06:00,42.5,29.2,30.19,SE,144,0.0,23.0,59,0.00,,,0.00,Wunderground v.1.15,2013-01-24 01:06:00,
2013-01-23 19:11:00,42.3,29.4,30.19,SE,144,1.0,23.0,60,0.00,,,0.00,Wunderground v.1.15,2013-01-24 01:11:00,
2013-01-23 19:16:00,42.2,29.3,30.19,SE,144,1.0,23.0,60,0.00,,,0.00,Wunderground v.1.15,2013-01-24 01:16:00,
2013-01-23 19:22:00,42.1,29.2,30.19,SE,144,0.0,23.0,60,0.00,,,0.00,Wunderground v.1.15,2013-01-24 01:22:00,
2013-01-23 19:27:00,42.0,29.5,30.19,SE,144,0.0,23.0,61,0.00,,,0.00,Wunderground v.1.15,2013-01-24 01:27:00,
2013-01-23 19:32:00,41.9,29.4,30.19,SE,143,0.0,23.0,61,0.00,,,0.00,Wunderground v.1.15,2013-01-24 01:32:00,
2013-01-23 19:38:00,41.8,29.3,30.19,SE,144,0.0,23.0,61,0.00,,,0.00,Wunderground v.1.15,2013-01-24 01:38:00,
2013-01-23 19:43:00,41.8,29.3,30.19,SSE,151,0.0,23.0,61,0.00,,,0.00,Wunderground v.1.15,2013-01-24 01:43:00,
2013-01-23 19:48:00,41.6,29.5,30.18,SSE,152,0.0,23.0,62,0.00,,,0.00,Wunderground v.1.15,2013-01-24 01:48:00,
2013-01-23 19:54:00,41.3,29.3,30.18,SSE,152,1.0,23.0,62,0.00,,,0.00,Wunderground v.1.15,2013-01-24 01:54:00,
2013-01-23 19:59:00,40.9,29.3,30.18,SSE,167,1.0,23.0,63,0.00,,,0.00,Wunderground v.1.15,2013-01-24 01:59:00,
2013-01-23 20:04:00,40.4,29.2,30.17,SSE,162,1.0,23.0,64,0.00,,,0.00,Wunderground v.1.15,2013-01-24 02:04:00,
2013-01-23 20:10:00,40.0,29.6,30.17,SSE,163,1.0,23.0,66,0.00,,,0.00,Wunderground v.1.15,2013-01-24 02:10:00,
2013-01-23 20:15:00,40.5,30.0,30.17,SE,140,1.0,23.0,66,0.00,,,0.00,Wunderground v.1.15,2013-01-24 02:15:00,
2013-01-23 20:20:00,41.2,30.3,30.18,SSE,155,2.0,23.0,65,0.00,,,0.00,Wunderground v.1.15,2013-01-24 02:20:00,
2013-01-23 20:25:00,41.9,30.6,30.18,South,172,2.0,23.0,64,0.00,,,0.00,Wunderground v.1.15,2013-01-24 02:25:00,
2013-01-23 20:31:00,42.5,30.8,30.19,South,176,2.0,23.0,63,0.00,,,0.00,Wunderground v.1.15,2013-01-24 02:31:00,
2013-01-23 20:36:00,42.5,30.4,30.19,SSE,164,2.0,23.0,62,0.00,,,0.00,Wunderground v.1.15,2013-01-24 02:36:00,
2013-01-23 20:42:00,41.3,29.3,30.19,SSE,150,2.0,23.0,62,0.00,,,0.00,Wunderground v.1.15,2013-01-24 02:42:00,
2013-01-23 20:47:00,39.7,28.9,30.19,SSE,151,1.0,23.0,65,0.00,,,0.00,Wunderground v.1.15,2013-01-24 02:47:00,
2013-01-23 20:52:00,38.5,28.9,30.19,SSE,164,1.0,23.0,68,0.00,,,0.00,Wunderground v.1.15,2013-01-24 02:52:00,
2013-01-23 20:58:00,39.6,30.3,30.19,South,189,2.0,23.0,69,0.00,,,0.00,Wunderground v.1.15,2013-01-24 02:58:00,
2013-01-23 21:03:00,40.6,30.1,30.19,SSE,159,2.0,23.0,66,0.00,,,0.00,Wunderground v.1.15,2013-01-24 03:03:00,
2013-01-23 21:09:00,40.7,31.0,30.18,South,185,3.0,23.0,68,0.00,,,0.00,Wunderground v.1.15,2013-01-24 03:09:00,
2013-01-23 21:15:00,41.9,31.4,30.18,South,184,4.0,23.0,66,0.00,,,0.00,Wunderground v.1.15,2013-01-24 03:15:00,
2013-01-23 21:20:00,42.5,32.3,30.18,WSW,240,5.0,23.0,67,0.00,,,0.00,Wunderground v.1.15,2013-01-24 03:20:00,
2013-01-23 21:26:00,43.1,32.9,30.18,SSE,148,6.0,23.0,67,0.00,,,0.00,Wunderground v.1.15,2013-01-24 03:26:00,
2013-01-23 21:31:00,43.1,32.5,30.19,South,189,5.0,23.0,66,0.00,,,0.00,Wunderground v.1.15,2013-01-24 03:31:00,
2013-01-23 21:36:00,43.2,32.6,30.19,SSW,198,5.0,23.0,66,0.00,,,0.00,Wunderground v.1.15,2013-01-24 03:36:00,
2013-01-23 21:42:00,43.5,32.9,30.19,WSW,252,5.0,23.0,66,0.00,,,0.00,Wunderground v.1.15,2013-01-24 03:42:00,
2013-01-23 21:47:00,43.7,33.1,30.19,SSW,200,6.0,23.0,66,0.00,,,0.00,Wunderground v.1.15,2013-01-24 03:47:00,
2013-01-23 21:52:00,43.7,33.5,30.19,South,180,5.0,23.0,67,0.00,,,0.00,Wunderground v.1.15,2013-01-24 03:52:00,
2013-01-23 21:58:00,43.7,33.5,30.19,South,172,4.0,23.0,67,0.00,,,0.00,Wunderground v.1.15,2013-01-24 03:58:00,
2013-01-23 22:03:00,43.2,33.3,30.20,South,189,3.0,23.0,68,0.00,,,0.00,Wunderground v.1.15,2013-01-24 04:03:00,
2013-01-23 22:08:00,43.0,32.8,30.20,SSE,159,2.0,23.0,67,0.00,,,0.00,Wunderground v.1.15,2013-01-24 04:08:00,
2013-01-23 22:14:00,42.9,32.7,30.20,SSE,167,2.0,23.0,67,0.00,,,0.00,Wunderground v.1.15,2013-01-24 04:14:00,
2013-01-23 22:19:00,42.7,32.5,30.20,South,170,2.0,23.0,67,0.00,,,0.00,Wunderground v.1.15,2013-01-24 04:19:00,
2013-01-23 22:24:00,42.9,32.7,30.20,South,183,3.0,23.0,67,0.00,,,0.00,Wunderground v.1.15,2013-01-24 04:24:00,
2013-01-23 22:30:00,42.9,32.7,30.20,South,174,4.0,4.0,67,0.00,,,0.00,Wunderground v.1.15,2013-01-24 04:30:00,
2013-01-23 22:35:00,42.6,32.4,30.19,South,170,3.0,23.0,67,0.00,,,0.00,Wunderground v.1.15,2013-01-24 04:35:00,
2013-01-23 22:41:00,42.4,32.2,30.20,South,169,3.0,23.0,67,0.00,,,0.00,Wunderground v.1.15,2013-01-24 04:41:00,
2013-01-23 22:46:00,42.6,32.8,30.20,SSE,162,3.0,23.0,68,0.00,,,0.00,Wunderground v.1.15,2013-01-24 04:46:00,
2013-01-23 22:51:00,42.4,32.9,30.20,South,172,3.0,23.0,69,0.00,,,0.00,Wunderground v.1.15,2013-01-24 04:51:00,
2013-01-23 22:57:00,42.8,34.0,30.20,SSE,164,3.0,23.0,71,0.00,,,0.00,Wunderground v.1.15,2013-01-24 04:57:00,
2013-01-23 23:00:00,43.2,33.7,30.20,SSE,157,3.0,3.0,69,0.00,,,0.00,Wunderground v.1.15,2013-01-24 05:00:00,
2013-01-23 23:01:00,43.2,33.7,30.20,SSE,162,3.0,23.0,69,0.00,,,0.00,Wunderground v.1.15,2013-01-24 05:01:00,
2013-01-23 23:04:00,43.1,33.6,30.20,SSE,159,3.0,23.0,69,0.00,,,0.00,Wunderground v.1.15,2013-01-24 05:04:00,
2013-01-23 23:06:00,43.1,34.0,30.20,SSE,167,2.0,23.0,70,0.00,,,0.00,Wunderground v.1.15,2013-01-24 05:06:00,
2013-01-23 23:11:00,43.2,34.1,30.20,SSE,162,1.0,23.0,70,0.00,,,0.00,Wunderground v.1.15,2013-01-24 05:11:00,
2013-01-23 23:16:00,43.4,34.6,30.20,South,187,1.0,23.0,71,0.00,,,0.00,Wunderground v.1.15,2013-01-24 05:16:00,
2013-01-23 23:22:00,43.4,34.3,30.20,South,181,2.0,23.0,70,0.00,,,0.00,Wunderground v.1.15,2013-01-24 05:22:00,
2013-01-23 23:27:00,44.1,35.3,30.20,South,185,3.0,23.0,71,0.00,,,0.00,Wunderground v.1.15,2013-01-24 05:27:00,
2013-01-23 23:32:00,44.7,36.2,30.20,SSE,160,3.0,23.0,72,0.00,,,0.00,Wunderground v.1.15,2013-01-24 05:32:00,
2013-01-23 23:37:00,45.0,36.5,30.20,South,174,2.0,23.0,72,0.00,,,0.00,Wunderground v.1.15,2013-01-24 05:37:00,
2013-01-23 23:43:00,45.6,36.7,30.20,South,189,3.0,23.0,71,0.00,,,0.00,Wunderground v.1.15,2013-01-24 05:43:00,
2013-01-23 23:49:00,46.2,37.7,30.20,South,171,3.0,23.0,72,0.00,,,0.00,Wunderground v.1.15,2013-01-24 05:49:00,
2013-01-23 23:54:00,46.6,37.7,30.20,South,183,4.0,23.0,71,0.00,,,0.00,Wunderground v.1.15,2013-01-24 05:54:00,
2013-01-23 23:59:00,46.6,37.3,30.20,South,172,3.0,23.0,70,0.00,,,0.00,Wunderground v.1.15,2013-01-24 05:59:00,